sensor_id;sensor_type;location;lat;lon;timestamp;temperature;humidity
21417;DHT22;10869;52.238;10.716;2023-05-16T03:02:41;9.90;99.90
21417;DHT22;10869;52.238;10.716;2023-05-16T03:05:07;9.90;99.90
21417;DHT22;10869;52.238;10.716;2023-05-16T03:07:35;9.90;99.90
21417;DHT22;10869;52.238;10.716;2023-05-16T03:10:00;9.90;99.90
21417;DHT22;10869;52.238;10.716;2023-05-16T03:12:26;10.00;99.90
21417;DHT22;10869;52.238;10.716;2023-05-16T03:14:52;10.00;99.90
21417;DHT22;10869;52.238;10.716;2023-05-16T03:17:18;9.90;99.90
21417;DHT22;10869;52.238;10.716;2023-05-16T03:19:44;10.00;99.90
21417;DHT22;10869;52.238;10.716;2023-05-16T03:22:09;10.00;99.90
21417;DHT22;10869;52.238;10.716;2023-05-16T03:24:35;10.00;99.90
21417;DHT22;10869;52.238;10.716;2023-05-16T03:27:01;10.00;99.90
21417;DHT22;10869;52.238;10.716;2023-05-16T03:29:29;10.00;99.90
21417;DHT22;10869;52.238;10.716;2023-05-16T03:31:55;9.90;99.90
21417;DHT22;10869;52.238;10.716;2023-05-16T03:34:21;10.00;99.90
21417;DHT22;10869;52.238;10.716;2023-05-16T03:36:50;10.00;99.90
21417;DHT22;10869;52.238;10.716;2023-05-16T03:39:16;10.00;99.90
21417;DHT22;10869;52.238;10.716;2023-05-16T03:41:42;10.00;99.90
21417;DHT22;10869;52.238;10.716;2023-05-16T03:44:08;10.00;99.90
21417;DHT22;10869;52.238;10.716;2023-05-16T03:46:34;10.00;99.90
21417;DHT22;10869;52.238;10.716;2023-05-16T03:49:01;10.00;99.90
21417;DHT22;10869;52.238;10.716;2023-05-16T03:51:27;10.00;99.90
21417;DHT22;10869;52.238;10.716;2023-05-16T03:53:53;10.00;99.90
21417;DHT22;10869;52.238;10.716;2023-05-16T03:56:19;10.00;99.90
21417;DHT22;10869;52.238;10.716;2023-05-16T03:58:46;10.00;99.90
21417;DHT22;10869;52.238;10.716;2023-05-16T04:04:33;10.10;99.90
21417;DHT22;10869;52.238;10.716;2023-05-16T04:07:01;10.10;99.90
21417;DHT22;10869;52.238;10.716;2023-05-16T04:09:26;10.10;99.90
21417;DHT22;10869;52.238;10.716;2023-05-16T04:11:52;10.10;99.90
21417;DHT22;10869;52.238;10.716;2023-05-16T04:14:21;10.10;99.90
21417;DHT22;10869;52.238;10.716;2023-05-16T04:16:47;10.10;99.90
21417;DHT22;10869;52.238;10.716;2023-05-16T04:19:13;10.10;99.90
21417;DHT22;10869;52.238;10.716;2023-05-16T04:21:39;10.10;99.90
21417;DHT22;10869;52.238;10.716;2023-05-16T04:24:05;10.10;99.90
21417;DHT22;10869;52.238;10.716;2023-05-16T04:26:31;10.20;99.90
21417;DHT22;10869;52.238;10.716;2023-05-16T04:28:57;10.10;99.90
21417;DHT22;10869;52.238;10.716;2023-05-16T04:31:25;10.20;99.90
21417;DHT22;10869;52.238;10.716;2023-05-16T04:33:51;10.20;99.90
21417;DHT22;10869;52.238;10.716;2023-05-16T04:36:17;10.20;99.90
21417;DHT22;10869;52.238;10.716;2023-05-16T04:38:43;10.20;99.90
21417;DHT22;10869;52.238;10.716;2023-05-16T04:41:11;10.20;99.90
21417;DHT22;10869;52.238;10.716;2023-05-16T04:43:37;10.10;99.90
21417;DHT22;10869;52.238;10.716;2023-05-16T04:46:03;10.10;99.90
21417;DHT22;10869;52.238;10.716;2023-05-16T04:48:29;10.10;99.90
21417;DHT22;10869;52.238;10.716;2023-05-16T04:50:55;10.10;99.90
21417;DHT22;10869;52.238;10.716;2023-05-16T04:53:22;10.10;99.90
21417;DHT22;10869;52.238;10.716;2023-05-16T04:55:47;10.10;99.90
21417;DHT22;10869;52.238;10.716;2023-05-16T04:58:13;10.10;99.90
21417;DHT22;10869;52.238;10.716;2023-05-16T05:00:40;10.00;99.90
21417;DHT22;10869;52.238;10.716;2023-05-16T05:03:06;10.00;99.90
21417;DHT22;10869;52.238;10.716;2023-05-16T05:05:32;9.90;99.90
21417;DHT22;10869;52.238;10.716;2023-05-16T05:07:58;9.90;99.90
21417;DHT22;10869;52.238;10.716;2023-05-16T05:10:25;9.90;99.90
21417;DHT22;10869;52.238;10.716;2023-05-16T05:12:56;9.90;99.90
21417;DHT22;10869;52.238;10.716;2023-05-16T05:15:21;10.00;99.90
21417;DHT22;10869;52.238;10.716;2023-05-16T05:17:47;10.00;99.90
21417;DHT22;10869;52.238;10.716;2023-05-16T05:20:13;10.10;99.90
21417;DHT22;10869;52.238;10.716;2023-05-16T05:22:39;10.20;99.90
21417;DHT22;10869;52.238;10.716;2023-05-16T05:25:05;10.30;99.90
21417;DHT22;10869;52.238;10.716;2023-05-16T05:27:31;10.30;99.90
21417;DHT22;10869;52.238;10.716;2023-05-16T05:29:56;10.40;99.90
21417;DHT22;10869;52.238;10.716;2023-05-16T05:32:22;10.50;99.90
21417;DHT22;10869;52.238;10.716;2023-05-16T05:34:49;10.60;99.90
21417;DHT22;10869;52.238;10.716;2023-05-16T05:43:35;10.80;99.90
21417;DHT22;10869;52.238;10.716;2023-05-16T05:46:03;10.80;99.90
21417;DHT22;10869;52.238;10.716;2023-05-16T05:48:29;10.90;99.90
21417;DHT22;10869;52.238;10.716;2023-05-16T05:50:57;10.90;99.90
21417;DHT22;10869;52.238;10.716;2023-05-16T06:11:33;11.10;99.90
21417;DHT22;10869;52.238;10.716;2023-05-16T06:16:33;10.90;99.90
21417;DHT22;10869;52.238;10.716;2023-05-16T06:18:59;10.90;99.90
21417;DHT22;10869;52.238;10.716;2023-05-16T06:21:25;10.80;99.90
21417;DHT22;10869;52.238;10.716;2023-05-16T06:23:51;10.60;99.90
21417;DHT22;10869;52.238;10.716;2023-05-16T06:29:38;10.40;99.90
21417;DHT22;10869;52.238;10.716;2023-05-16T06:35:26;10.30;99.90
21417;DHT22;10869;52.238;10.716;2023-05-16T06:41:14;10.50;99.90
21417;DHT22;10869;52.238;10.716;2023-05-16T06:47:02;10.60;99.90
21417;DHT22;10869;52.238;10.716;2023-05-16T06:49:28;10.60;99.90
21417;DHT22;10869;52.238;10.716;2023-05-16T06:51:57;10.50;99.90
21417;DHT22;10869;52.238;10.716;2023-05-16T06:54:31;10.50;99.90
21417;DHT22;10869;52.238;10.716;2023-05-16T07:00:19;10.80;99.90
21417;DHT22;10869;52.238;10.716;2023-05-16T07:02:45;10.90;99.90
21417;DHT22;10869;52.238;10.716;2023-05-16T07:08:37;10.80;99.90
21417;DHT22;10869;52.238;10.716;2023-05-16T07:11:03;10.70;99.90
21417;DHT22;10869;52.238;10.716;2023-05-16T07:16:51;10.60;99.90
21417;DHT22;10869;52.238;10.716;2023-05-16T07:19:16;10.70;99.90
21417;DHT22;10869;52.238;10.716;2023-05-16T07:21:42;10.60;99.90
21417;DHT22;10869;52.238;10.716;2023-05-16T07:24:08;10.60;99.90
21417;DHT22;10869;52.238;10.716;2023-05-16T07:26:34;10.40;99.90
21417;DHT22;10869;52.238;10.716;2023-05-16T07:28:59;10.30;99.90
21417;DHT22;10869;52.238;10.716;2023-05-16T07:31:27;10.30;99.90
21417;DHT22;10869;52.238;10.716;2023-05-16T07:33:52;10.30;99.90
21417;DHT22;10869;52.238;10.716;2023-05-16T07:36:18;10.40;99.90
21417;DHT22;10869;52.238;10.716;2023-05-16T07:42:07;11.10;99.90
21417;DHT22;10869;52.238;10.716;2023-05-16T07:44:33;12.00;99.90
21417;DHT22;10869;52.238;10.716;2023-05-16T07:47:01;12.60;99.90
21417;DHT22;10869;52.238;10.716;2023-05-16T07:49:27;13.10;99.90
21417;DHT22;10869;52.238;10.716;2023-05-16T07:51:53;13.20;99.90
21417;DHT22;10869;52.238;10.716;2023-05-16T07:54:19;13.20;99.90
21417;DHT22;10869;52.238;10.716;2023-05-16T07:56:45;13.10;99.90
21417;DHT22;10869;52.238;10.716;2023-05-16T08:02:33;13.60;99.90
21417;DHT22;10869;52.238;10.716;2023-05-16T08:04:59;13.70;99.90
21417;DHT22;10869;52.238;10.716;2023-05-16T08:07:25;13.70;99.90
21417;DHT22;10869;52.238;10.716;2023-05-16T08:09:50;13.60;99.90
21417;DHT22;10869;52.238;10.716;2023-05-16T08:12:16;13.80;99.90
21417;DHT22;10869;52.238;10.716;2023-05-16T08:14:42;13.90;99.90
21417;DHT22;10869;52.238;10.716;2023-05-16T08:17:08;14.00;99.90
21417;DHT22;10869;52.238;10.716;2023-05-16T08:19:34;14.10;99.90
21417;DHT22;10869;52.238;10.716;2023-05-16T08:22:00;14.40;99.90
21417;DHT22;10869;52.238;10.716;2023-05-16T08:24:26;14.60;99.90
21417;DHT22;10869;52.238;10.716;2023-05-16T08:26:51;14.90;99.90
21417;DHT22;10869;52.238;10.716;2023-05-16T08:29:17;14.70;99.90
21417;DHT22;10869;52.238;10.716;2023-05-16T08:31:43;14.40;99.90
21417;DHT22;10869;52.238;10.716;2023-05-16T08:34:09;14.20;99.90
21417;DHT22;10869;52.238;10.716;2023-05-16T08:36:36;14.10;99.90
21417;DHT22;10869;52.238;10.716;2023-05-16T08:39:02;14.20;99.90
21417;DHT22;10869;52.238;10.716;2023-05-16T08:41:28;14.40;99.90
21417;DHT22;10869;52.238;10.716;2023-05-16T08:43:54;14.80;99.90
21417;DHT22;10869;52.238;10.716;2023-05-16T08:49:43;15.10;99.90
21417;DHT22;10869;52.238;10.716;2023-05-16T08:52:13;15.10;99.10
21417;DHT22;10869;52.238;10.716;2023-05-16T08:54:42;15.10;99.30
21417;DHT22;10869;52.238;10.716;2023-05-16T09:07:33;15.20;97.90
21417;DHT22;10869;52.238;10.716;2023-05-16T09:09:59;15.80;97.20
21417;DHT22;10869;52.238;10.716;2023-05-16T09:16:10;15.50;96.20
21417;DHT22;10869;52.238;10.716;2023-05-16T09:18:37;14.90;96.50
21417;DHT22;10869;52.238;10.716;2023-05-16T09:21:06;14.80;97.00
21417;DHT22;10869;52.238;10.716;2023-05-16T09:23:33;15.30;96.40
21417;DHT22;10869;52.238;10.716;2023-05-16T09:25:59;15.70;96.50
21417;DHT22;10869;52.238;10.716;2023-05-16T09:28:25;16.00;95.30
21417;DHT22;10869;52.238;10.716;2023-05-16T09:30:52;15.90;94.30
21417;DHT22;10869;52.238;10.716;2023-05-16T09:33:21;15.60;94.80
21417;DHT22;10869;52.238;10.716;2023-05-16T09:36:00;15.30;95.00
21417;DHT22;10869;52.238;10.716;2023-05-16T09:38:27;15.10;95.40
21417;DHT22;10869;52.238;10.716;2023-05-16T09:40:55;14.90;95.30
21417;DHT22;10869;52.238;10.716;2023-05-16T09:43:25;14.70;95.70
21417;DHT22;10869;52.238;10.716;2023-05-16T09:45:52;14.40;94.60
21417;DHT22;10869;52.238;10.716;2023-05-16T09:48:18;14.60;94.30
21417;DHT22;10869;52.238;10.716;2023-05-16T09:50:50;15.00;95.10
21417;DHT22;10869;52.238;10.716;2023-05-16T09:53:27;15.30;94.10
21417;DHT22;10869;52.238;10.716;2023-05-16T09:56:26;15.50;94.00
21417;DHT22;10869;52.238;10.716;2023-05-16T09:58:53;15.60;93.50
21417;DHT22;10869;52.238;10.716;2023-05-16T10:01:19;15.80;93.90
21417;DHT22;10869;52.238;10.716;2023-05-16T10:03:45;16.20;93.20
21417;DHT22;10869;52.238;10.716;2023-05-16T10:06:11;16.60;92.30
21417;DHT22;10869;52.238;10.716;2023-05-16T10:08:41;16.70;91.50
21417;DHT22;10869;52.238;10.716;2023-05-16T10:11:07;16.70;91.10
21417;DHT22;10869;52.238;10.716;2023-05-16T10:16:56;16.60;91.00
21417;DHT22;10869;52.238;10.716;2023-05-16T10:19:24;16.40;91.10
21417;DHT22;10869;52.238;10.716;2023-05-16T10:21:53;16.70;91.10
21417;DHT22;10869;52.238;10.716;2023-05-16T10:24:28;17.00;90.90
21417;DHT22;10869;52.238;10.716;2023-05-16T10:26:56;17.30;90.90
21417;DHT22;10869;52.238;10.716;2023-05-16T10:29:22;17.20;90.20
21417;DHT22;10869;52.238;10.716;2023-05-16T10:31:49;16.90;91.10
21417;DHT22;10869;52.238;10.716;2023-05-16T10:34:15;16.50;90.70
21417;DHT22;10869;52.238;10.716;2023-05-16T10:36:43;16.40;91.20
21417;DHT22;10869;52.238;10.716;2023-05-16T10:39:10;16.30;90.10
21417;DHT22;10869;52.238;10.716;2023-05-16T10:45:18;15.60;90.50
21417;DHT22;10869;52.238;10.716;2023-05-16T10:47:55;16.00;90.60
21417;DHT22;10869;52.238;10.716;2023-05-16T10:50:50;15.70;88.50
21417;DHT22;10869;52.238;10.716;2023-05-16T10:53:22;15.40;90.50
21417;DHT22;10869;52.238;10.716;2023-05-16T11:01:23;15.30;90.70
21417;DHT22;10869;52.238;10.716;2023-05-16T11:06:27;16.30;89.90
21417;DHT22;10869;52.238;10.716;2023-05-16T11:09:23;16.80;87.70
21417;DHT22;10869;52.238;10.716;2023-05-16T11:17:00;17.50;86.20
21417;DHT22;10869;52.238;10.716;2023-05-16T11:19:32;17.40;87.00
21417;DHT22;10869;52.238;10.716;2023-05-16T11:22:32;17.10;87.10
21417;DHT22;10869;52.238;10.716;2023-05-16T11:25:01;17.30;86.70
21417;DHT22;10869;52.238;10.716;2023-05-16T11:27:34;17.60;83.30
21417;DHT22;10869;52.238;10.716;2023-05-16T11:32:36;18.00;82.10
21417;DHT22;10869;52.238;10.716;2023-05-16T11:38:24;18.20;81.00
21417;DHT22;10869;52.238;10.716;2023-05-16T11:40:50;18.50;80.10
21417;DHT22;10869;52.238;10.716;2023-05-16T11:46:56;18.60;79.40
21417;DHT22;10869;52.238;10.716;2023-05-16T11:49:22;19.10;81.90
21417;DHT22;10869;52.238;10.716;2023-05-16T11:51:49;19.40;79.70
21417;DHT22;10869;52.238;10.716;2023-05-16T11:54:17;19.50;79.30
21417;DHT22;10869;52.238;10.716;2023-05-16T11:56:44;19.70;79.30
21417;DHT22;10869;52.238;10.716;2023-05-16T11:59:10;20.00;78.40
21417;DHT22;10869;52.238;10.716;2023-05-16T12:01:37;20.00;77.60
21417;DHT22;10869;52.238;10.716;2023-05-16T12:04:08;20.10;79.00
21417;DHT22;10869;52.238;10.716;2023-05-16T12:06:41;20.30;78.00
21417;DHT22;10869;52.238;10.716;2023-05-16T12:09:13;20.20;74.50
21417;DHT22;10869;52.238;10.716;2023-05-16T12:11:43;19.70;77.20
21417;DHT22;10869;52.238;10.716;2023-05-16T12:14:11;19.20;77.90
21417;DHT22;10869;52.238;10.716;2023-05-16T12:16:37;19.00;77.50
21417;DHT22;10869;52.238;10.716;2023-05-16T12:19:04;19.20;77.90
21417;DHT22;10869;52.238;10.716;2023-05-16T12:21:31;19.50;78.80
21417;DHT22;10869;52.238;10.716;2023-05-16T12:23:58;19.50;78.20
21417;DHT22;10869;52.238;10.716;2023-05-16T12:26:28;19.50;77.20
21417;DHT22;10869;52.238;10.716;2023-05-16T12:29:02;19.70;76.50
21417;DHT22;10869;52.238;10.716;2023-05-16T12:31:31;20.00;77.10
21417;DHT22;10869;52.238;10.716;2023-05-16T12:34:00;20.20;73.80
21417;DHT22;10869;52.238;10.716;2023-05-16T12:36:31;20.00;72.50
21417;DHT22;10869;52.238;10.716;2023-05-16T12:39:01;19.70;73.90
21417;DHT22;10869;52.238;10.716;2023-05-16T12:41:29;19.60;74.10
21417;DHT22;10869;52.238;10.716;2023-05-16T12:44:14;19.10;74.70
21417;DHT22;10869;52.238;10.716;2023-05-16T12:46:48;19.10;74.70
21417;DHT22;10869;52.238;10.716;2023-05-16T12:49:14;18.80;75.60
21417;DHT22;10869;52.238;10.716;2023-05-16T12:51:46;18.60;76.10
21417;DHT22;10869;52.238;10.716;2023-05-16T12:54:12;18.90;76.50
21417;DHT22;10869;52.238;10.716;2023-05-16T12:56:40;19.40;75.70
21417;DHT22;10869;52.238;10.716;2023-05-16T12:59:06;19.90;76.70
21417;DHT22;10869;52.238;10.716;2023-05-16T13:01:34;20.00;75.60
21417;DHT22;10869;52.238;10.716;2023-05-16T13:04:03;19.50;74.10
21417;DHT22;10869;52.238;10.716;2023-05-16T13:06:29;19.30;71.90
21417;DHT22;10869;52.238;10.716;2023-05-16T13:08:55;18.70;74.10
21417;DHT22;10869;52.238;10.716;2023-05-16T13:11:21;18.30;74.60
21417;DHT22;10869;52.238;10.716;2023-05-16T13:14:19;17.90;75.30
21417;DHT22;10869;52.238;10.716;2023-05-16T13:16:45;17.40;76.20
21417;DHT22;10869;52.238;10.716;2023-05-16T13:19:11;17.60;76.70
21417;DHT22;10869;52.238;10.716;2023-05-16T13:21:36;18.30;77.00
21417;DHT22;10869;52.238;10.716;2023-05-16T13:24:02;18.70;76.80
21417;DHT22;10869;52.238;10.716;2023-05-16T13:26:28;19.10;76.50
21417;DHT22;10869;52.238;10.716;2023-05-16T13:32:16;19.50;73.90
21417;DHT22;10869;52.238;10.716;2023-05-16T13:34:43;20.10;72.60
21417;DHT22;10869;52.238;10.716;2023-05-16T13:37:09;20.30;72.70
21417;DHT22;10869;52.238;10.716;2023-05-16T13:39:34;19.80;73.40
21417;DHT22;10869;52.238;10.716;2023-05-16T13:42:00;19.20;73.80
21417;DHT22;10869;52.238;10.716;2023-05-16T13:44:27;18.50;73.20
21417;DHT22;10869;52.238;10.716;2023-05-16T13:46:53;18.00;76.00
21417;DHT22;10869;52.238;10.716;2023-05-16T13:49:19;17.60;76.20
21417;DHT22;10869;52.238;10.716;2023-05-16T13:51:45;17.30;77.00
21417;DHT22;10869;52.238;10.716;2023-05-16T13:54:13;17.00;77.70
21417;DHT22;10869;52.238;10.716;2023-05-16T13:56:39;16.60;78.60
21417;DHT22;10869;52.238;10.716;2023-05-16T13:59:04;16.40;77.80
21417;DHT22;10869;52.238;10.716;2023-05-16T14:01:30;16.40;77.50
21417;DHT22;10869;52.238;10.716;2023-05-16T14:07:18;16.70;78.90
21417;DHT22;10869;52.238;10.716;2023-05-16T14:09:44;16.90;79.00
21417;DHT22;10869;52.238;10.716;2023-05-16T14:12:10;17.50;77.90
21417;DHT22;10869;52.238;10.716;2023-05-16T14:14:37;18.00;79.00
21417;DHT22;10869;52.238;10.716;2023-05-16T14:17:03;18.20;77.60
21417;DHT22;10869;52.238;10.716;2023-05-16T14:23:08;17.50;76.20
21417;DHT22;10869;52.238;10.716;2023-05-16T14:25:33;17.10;76.00
21417;DHT22;10869;52.238;10.716;2023-05-16T14:27:59;17.00;77.20
21417;DHT22;10869;52.238;10.716;2023-05-16T14:33:47;17.00;76.90
21417;DHT22;10869;52.238;10.716;2023-05-16T14:39:35;17.10;78.00
21417;DHT22;10869;52.238;10.716;2023-05-16T14:45:22;17.80;77.30
21417;DHT22;10869;52.238;10.716;2023-05-16T14:47:48;17.90;75.80
21417;DHT22;10869;52.238;10.716;2023-05-16T14:56:58;17.80;73.40
21417;DHT22;10869;52.238;10.716;2023-05-16T15:02:46;17.40;74.60
21417;DHT22;10869;52.238;10.716;2023-05-16T15:08:33;17.60;74.90
21417;DHT22;10869;52.238;10.716;2023-05-16T15:10:59;18.00;74.50
21417;DHT22;10869;52.238;10.716;2023-05-16T15:13:25;18.10;73.90
21417;DHT22;10869;52.238;10.716;2023-05-16T15:15:51;17.70;74.20
21417;DHT22;10869;52.238;10.716;2023-05-16T15:18:17;17.10;74.70
21417;DHT22;10869;52.238;10.716;2023-05-16T15:20:43;16.90;76.30
21417;DHT22;10869;52.238;10.716;2023-05-16T15:23:08;17.10;76.70
21417;DHT22;10869;52.238;10.716;2023-05-16T15:25:34;17.00;75.70
21417;DHT22;10869;52.238;10.716;2023-05-16T15:28:00;17.10;77.20
21417;DHT22;10869;52.238;10.716;2023-05-16T15:30:26;16.80;75.40
21417;DHT22;10869;52.238;10.716;2023-05-16T15:32:51;16.20;74.90
21417;DHT22;10869;52.238;10.716;2023-05-16T15:35:17;15.80;76.60
21417;DHT22;10869;52.238;10.716;2023-05-16T15:37:43;15.60;77.70
21417;DHT22;10869;52.238;10.716;2023-05-16T15:40:09;15.50;78.30
21417;DHT22;10869;52.238;10.716;2023-05-16T15:42:35;15.90;78.60
21417;DHT22;10869;52.238;10.716;2023-05-16T15:45:01;15.90;78.30
21417;DHT22;10869;52.238;10.716;2023-05-16T15:50:49;15.90;77.40
21417;DHT22;10869;52.238;10.716;2023-05-16T15:53:15;15.70;78.80
21417;DHT22;10869;52.238;10.716;2023-05-16T15:55:41;16.00;79.50
21417;DHT22;10869;52.238;10.716;2023-05-16T15:58:07;16.10;78.00
21417;DHT22;10869;52.238;10.716;2023-05-16T16:00:32;16.10;77.10
21417;DHT22;10869;52.238;10.716;2023-05-16T16:02:58;16.10;78.00
21417;DHT22;10869;52.238;10.716;2023-05-16T16:05:24;16.20;77.70
21417;DHT22;10869;52.238;10.716;2023-05-16T16:07:50;16.20;77.20
21417;DHT22;10869;52.238;10.716;2023-05-16T16:10:16;16.30;77.30
21417;DHT22;10869;52.238;10.716;2023-05-16T16:12:41;16.30;76.50
21417;DHT22;10869;52.238;10.716;2023-05-16T16:15:09;16.20;77.30
21417;DHT22;10869;52.238;10.716;2023-05-16T16:17:35;15.90;77.70
21417;DHT22;10869;52.238;10.716;2023-05-16T16:20:01;15.60;74.50
21417;DHT22;10869;52.238;10.716;2023-05-16T16:22:26;15.50;76.70
21417;DHT22;10869;52.238;10.716;2023-05-16T16:24:52;15.30;75.70
21417;DHT22;10869;52.238;10.716;2023-05-16T16:27:18;15.20;78.30
21417;DHT22;10869;52.238;10.716;2023-05-16T16:29:43;15.10;78.30
21417;DHT22;10869;52.238;10.716;2023-05-16T16:32:09;15.20;78.10
21417;DHT22;10869;52.238;10.716;2023-05-16T16:34:35;15.10;78.10
21417;DHT22;10869;52.238;10.716;2023-05-16T16:37:00;15.00;79.00
21417;DHT22;10869;52.238;10.716;2023-05-16T16:39:26;14.90;79.10
21417;DHT22;10869;52.238;10.716;2023-05-16T16:41:52;14.90;79.30
21417;DHT22;10869;52.238;10.716;2023-05-16T16:44:21;14.80;79.90
21417;DHT22;10869;52.238;10.716;2023-05-16T16:46:46;14.70;80.60
21417;DHT22;10869;52.238;10.716;2023-05-16T16:49:12;14.70;80.30
21417;DHT22;10869;52.238;10.716;2023-05-16T16:51:38;14.50;80.90
21417;DHT22;10869;52.238;10.716;2023-05-16T16:54:04;14.40;79.70
21417;DHT22;10869;52.238;10.716;2023-05-16T16:56:29;14.30;81.40
21417;DHT22;10869;52.238;10.716;2023-05-16T16:58:55;14.20;82.30
21417;DHT22;10869;52.238;10.716;2023-05-16T17:01:21;14.20;82.50
21417;DHT22;10869;52.238;10.716;2023-05-16T17:03:47;14.10;82.00
21417;DHT22;10869;52.238;10.716;2023-05-16T17:06:13;14.10;81.40
21417;DHT22;10869;52.238;10.716;2023-05-16T17:08:38;14.00;82.60
21417;DHT22;10869;52.238;10.716;2023-05-16T17:11:04;14.00;83.00
21417;DHT22;10869;52.238;10.716;2023-05-16T17:13:32;14.00;83.50
21417;DHT22;10869;52.238;10.716;2023-05-16T17:16:02;14.00;83.20
21417;DHT22;10869;52.238;10.716;2023-05-16T17:18:28;13.90;83.60
21417;DHT22;10869;52.238;10.716;2023-05-16T17:20:54;13.80;82.70
21417;DHT22;10869;52.238;10.716;2023-05-16T17:23:20;13.70;81.50
21417;DHT22;10869;52.238;10.716;2023-05-16T17:25:59;13.60;82.00
21417;DHT22;10869;52.238;10.716;2023-05-16T17:35:26;13.20;82.60
21417;DHT22;10869;52.238;10.716;2023-05-16T17:38:15;13.10;83.00
21417;DHT22;10869;52.238;10.716;2023-05-16T17:40:41;13.00;83.00
21417;DHT22;10869;52.238;10.716;2023-05-16T17:46:29;12.90;85.30
21417;DHT22;10869;52.238;10.716;2023-05-16T17:48:55;12.80;86.10
21417;DHT22;10869;52.238;10.716;2023-05-16T17:51:20;12.80;87.10
21417;DHT22;10869;52.238;10.716;2023-05-16T17:53:47;12.80;87.00
21417;DHT22;10869;52.238;10.716;2023-05-16T17:56:14;12.70;88.10
21417;DHT22;10869;52.238;10.716;2023-05-16T17:58:40;12.70;88.30
21417;DHT22;10869;52.238;10.716;2023-05-16T18:01:07;12.70;88.20
21417;DHT22;10869;52.238;10.716;2023-05-16T18:03:34;12.50;88.00
21417;DHT22;10869;52.238;10.716;2023-05-16T18:06:00;12.40;87.80
21417;DHT22;10869;52.238;10.716;2023-05-16T18:08:26;12.30;88.30
21417;DHT22;10869;52.238;10.716;2023-05-16T18:10:52;12.30;88.50
21417;DHT22;10869;52.238;10.716;2023-05-16T18:13:18;12.20;88.60
21417;DHT22;10869;52.238;10.716;2023-05-16T18:15:45;12.10;89.10
21417;DHT22;10869;52.238;10.716;2023-05-16T18:18:10;12.10;89.40
21417;DHT22;10869;52.238;10.716;2023-05-16T18:20:37;12.10;89.70
21417;DHT22;10869;52.238;10.716;2023-05-16T18:23:03;12.00;90.10
21417;DHT22;10869;52.238;10.716;2023-05-16T18:25:29;11.90;90.40
21417;DHT22;10869;52.238;10.716;2023-05-16T18:27:55;11.90;90.40
21417;DHT22;10869;52.238;10.716;2023-05-16T18:30:21;11.80;90.60
21417;DHT22;10869;52.238;10.716;2023-05-16T18:32:47;11.80;90.80
21417;DHT22;10869;52.238;10.716;2023-05-16T18:35:13;11.70;90.90
21417;DHT22;10869;52.238;10.716;2023-05-16T18:41:01;11.60;91.50
21417;DHT22;10869;52.238;10.716;2023-05-16T18:43:27;11.50;91.50
21417;DHT22;10869;52.238;10.716;2023-05-16T18:45:53;11.40;91.70
21417;DHT22;10869;52.238;10.716;2023-05-16T18:48:19;11.30;92.00
21417;DHT22;10869;52.238;10.716;2023-05-16T18:50:44;11.20;92.30
21417;DHT22;10869;52.238;10.716;2023-05-16T18:53:10;11.10;92.30
21417;DHT22;10869;52.238;10.716;2023-05-16T18:55:36;11.00;92.60
21417;DHT22;10869;52.238;10.716;2023-05-16T18:58:02;11.00;92.80
21417;DHT22;10869;52.238;10.716;2023-05-16T19:03:50;10.80;93.30
21417;DHT22;10869;52.238;10.716;2023-05-16T19:06:15;10.70;93.70
21417;DHT22;10869;52.238;10.716;2023-05-16T19:08:41;10.60;94.00
21417;DHT22;10869;52.238;10.716;2023-05-16T19:11:07;10.50;94.10
21417;DHT22;10869;52.238;10.716;2023-05-16T19:13:33;10.40;94.40
21417;DHT22;10869;52.238;10.716;2023-05-16T19:15:59;10.30;94.50
21417;DHT22;10869;52.238;10.716;2023-05-16T19:18:25;10.20;94.90
21417;DHT22;10869;52.238;10.716;2023-05-16T19:20:51;10.10;95.30
21417;DHT22;10869;52.238;10.716;2023-05-16T19:23:17;10.00;95.10
21417;DHT22;10869;52.238;10.716;2023-05-16T19:25:42;9.90;95.30
21417;DHT22;10869;52.238;10.716;2023-05-16T19:28:13;9.90;95.80
21417;DHT22;10869;52.238;10.716;2023-05-16T19:30:40;9.80;95.90
21417;DHT22;10869;52.238;10.716;2023-05-16T19:33:06;9.80;96.10
21417;DHT22;10869;52.238;10.716;2023-05-16T19:35:31;9.80;96.30
21417;DHT22;10869;52.238;10.716;2023-05-16T19:37:58;9.70;96.40
21417;DHT22;10869;52.238;10.716;2023-05-16T19:40:24;9.70;96.50
21417;DHT22;10869;52.238;10.716;2023-05-16T19:46:12;9.60;96.80
21417;DHT22;10869;52.238;10.716;2023-05-16T19:48:40;9.60;97.20
21417;DHT22;10869;52.238;10.716;2023-05-16T19:51:06;9.60;97.40
21417;DHT22;10869;52.238;10.716;2023-05-16T19:53:33;9.50;97.60
21417;DHT22;10869;52.238;10.716;2023-05-16T19:56:00;9.50;97.90
21417;DHT22;10869;52.238;10.716;2023-05-16T19:58:26;9.50;98.30
21417;DHT22;10869;52.238;10.716;2023-05-16T20:00:52;9.50;98.60
21417;DHT22;10869;52.238;10.716;2023-05-16T20:03:18;9.40;99.00
21417;DHT22;10869;52.238;10.716;2023-05-16T20:05:43;9.40;99.10
21417;DHT22;10869;52.238;10.716;2023-05-16T20:08:12;9.40;99.30
21417;DHT22;10869;52.238;10.716;2023-05-16T20:11:07;9.30;99.50
21417;DHT22;10869;52.238;10.716;2023-05-16T20:20:16;9.20;99.90
21417;DHT22;10869;52.238;10.716;2023-05-16T20:22:42;9.10;99.90
21417;DHT22;10869;52.238;10.716;2023-05-16T20:25:09;9.00;99.90
21417;DHT22;10869;52.238;10.716;2023-05-16T20:27:35;9.00;99.90
21417;DHT22;10869;52.238;10.716;2023-05-16T20:30:25;9.00;99.90
21417;DHT22;10869;52.238;10.716;2023-05-16T20:33:04;9.00;99.90
21417;DHT22;10869;52.238;10.716;2023-05-16T20:35:39;9.00;99.90
21417;DHT22;10869;52.238;10.716;2023-05-16T20:38:21;9.00;99.90
21417;DHT22;10869;52.238;10.716;2023-05-16T20:40:47;9.00;99.90
21417;DHT22;10869;52.238;10.716;2023-05-16T20:43:16;8.90;99.90
21417;DHT22;10869;52.238;10.716;2023-05-16T20:45:42;9.00;99.90
21417;DHT22;10869;52.238;10.716;2023-05-16T20:54:50;8.80;99.90
21417;DHT22;10869;52.238;10.716;2023-05-16T21:00:41;8.80;99.90
21417;DHT22;10869;52.238;10.716;2023-05-16T21:03:06;8.70;99.90
21417;DHT22;10869;52.238;10.716;2023-05-16T21:05:33;8.70;99.90
21417;DHT22;10869;52.238;10.716;2023-05-16T21:08:00;8.70;99.90
21417;DHT22;10869;52.238;10.716;2023-05-16T21:10:26;8.60;99.90
21417;DHT22;10869;52.238;10.716;2023-05-16T21:12:51;8.60;99.90
21417;DHT22;10869;52.238;10.716;2023-05-16T21:15:17;8.60;99.90
21417;DHT22;10869;52.238;10.716;2023-05-16T21:17:43;8.60;99.90
21417;DHT22;10869;52.238;10.716;2023-05-16T21:23:30;8.50;99.90
21417;DHT22;10869;52.238;10.716;2023-05-16T21:25:56;8.50;99.90